首页
METAR-TAF:

METAR-TAF

机场 :

斗湖機場

斗湖, 马来西亚

纬度: 04-16N, 经度: 117-53E, 海拔: 18米

当前天气观测

该预报发布于50分钟前的23:00 UTC
静风
温度 26°C
湿度 94%
气压 1010 hPa
能见度10公里或以上
少量云层高于1600英尺

METAR: WBKW 282300Z 00000KT 9999 FEW016 26/25 Q1010

时间: 07:50 (23:50 UTC)

预报

该预报发布于50分钟前的23:00 UTC
预报有效从29日的 00点(UTC)到 30日的 00点(UTC)
风速7节,风向南转南东
能见度10公里或以上
少量云层高于1600英尺
几率 40% :
短暂存在
从 29日的 04点(UTC)到 29日的 07点(UTC)
能見度: 5000
少量云层高于1300英尺
散云层高于3000英尺
阵雨
成为
从 29日的 09点(UTC)到 29日的 11点(UTC)
风速3节,风向多变

TAF: WBKW 282300Z 2900/3000 16007KT 9999 FEW016 PROB40 TEMPO 2904/2907 5000 SHRA FEW013 SCT030 BECMG 2909/2911 VRB03KT

超过4000个机场的气象观测和天气预报(METAR&TAF报告)。

可查询的气象台以黄色和红色小点在地图上表示。

将鼠标移到小点上方,可查看气象台名称。

然后点击查看天气观测和预报。

如需切换地图:点击带黑十字的绿色按钮放大地图;点击带横线的绿色按钮缩小地图;或者点击绿色箭头查看邻近地区的地图。


METAR-TAF: